createdAt,value
2019-03-13T00:01:56.877Z,42.40
2019-03-13T00:08:08.774Z,45.10
2019-03-13T00:10:42.253Z,43.83
2019-03-13T00:13:15.556Z,38.83
2019-03-13T00:19:27.268Z,39.93
2019-03-13T00:22:01.909Z,41.97
2019-03-13T00:24:35.331Z,41.63
2019-03-13T00:27:08.790Z,38.33
2019-03-13T00:32:47.295Z,40.63
2019-03-13T00:35:20.631Z,38.77
2019-03-13T00:37:53.996Z,39.37
2019-03-13T00:40:27.364Z,37.40
2019-03-13T00:43:00.700Z,32.83
2019-03-13T00:45:34.111Z,37.10
2019-03-13T00:48:07.474Z,38.27
2019-03-13T00:50:40.909Z,37.47
2019-03-13T00:53:14.279Z,33.83
2019-03-13T00:55:47.576Z,34.33
2019-03-13T00:58:20.938Z,35.13
2019-03-13T01:01:29.835Z,33.67
2019-03-13T01:04:12.130Z,34.47
2019-03-13T01:06:47.185Z,32.93
2019-03-13T01:09:21.880Z,34.37
2019-03-13T01:11:55.267Z,34.40
2019-03-13T01:14:28.618Z,33.60
2019-03-13T01:17:03.266Z,32.50
2019-03-13T01:19:36.594Z,34.17
2019-03-13T01:22:09.990Z,33.40
2019-03-13T01:24:43.282Z,31.33
2019-03-13T01:27:16.663Z,32.90
2019-03-13T01:29:50.047Z,31.23
2019-03-13T01:36:03.267Z,30.43
2019-03-13T01:38:36.688Z,29.60
2019-03-13T01:41:10.008Z,30.13
2019-03-13T01:43:43.365Z,29.17
2019-03-13T01:46:16.842Z,29.73
2019-03-13T01:48:50.199Z,29.00
2019-03-13T01:51:23.560Z,24.27
2019-03-13T01:53:56.911Z,26.07
2019-03-13T01:56:30.217Z,25.57
2019-03-13T01:59:03.549Z,25.67
2019-03-13T02:01:36.970Z,26.67
2019-03-13T02:04:10.312Z,23.97
2019-03-13T02:06:43.625Z,26.17
2019-03-13T02:09:16.978Z,24.90
2019-03-13T02:11:50.338Z,28.90
2019-03-13T02:14:23.723Z,25.80
2019-03-13T02:16:57.028Z,23.57
2019-03-13T02:19:30.382Z,23.83
2019-03-13T02:22:03.708Z,24.83
2019-03-13T02:24:37.072Z,23.30
2019-03-13T02:27:10.497Z,24.63
2019-03-13T02:29:43.882Z,26.03
2019-03-13T02:32:17.245Z,25.83
2019-03-13T02:34:50.578Z,25.37
2019-03-13T02:37:23.950Z,25.27
2019-03-13T02:39:57.356Z,24.27
2019-03-13T02:42:30.677Z,25.40
2019-03-13T02:45:04.228Z,24.97
2019-03-13T02:47:37.700Z,24.70
2019-03-13T02:50:14.663Z,25.20
2019-03-13T02:52:48.039Z,24.17
2019-03-13T02:55:21.396Z,25.40
2019-03-13T02:57:54.667Z,23.57
2019-03-13T03:00:45.752Z,24.43
2019-03-13T03:03:33.777Z,24.87
2019-03-13T03:06:02.697Z,24.07
2019-03-13T03:08:36.221Z,22.43
2019-03-13T03:11:12.921Z,23.20
2019-03-13T03:13:46.361Z,21.60
2019-03-13T03:16:19.648Z,21.73
2019-03-13T03:18:53.101Z,23.30
2019-03-13T03:21:26.549Z,20.73
2019-03-13T03:23:59.896Z,21.47
2019-03-13T03:26:33.136Z,20.97
2019-03-13T03:29:06.527Z,23.37
2019-03-13T03:31:39.797Z,20.93
2019-03-13T03:34:13.113Z,20.70
2019-03-13T03:36:46.422Z,21.20
2019-03-13T03:39:19.725Z,21.40
2019-03-13T03:41:53.100Z,20.50
2019-03-13T03:44:26.422Z,21.20
2019-03-13T03:46:59.685Z,19.93
2019-03-13T03:49:32.974Z,19.80
2019-03-13T03:52:06.347Z,19.60
2019-03-13T03:54:39.682Z,19.30
2019-03-13T03:57:13.090Z,18.63
2019-03-13T03:59:46.426Z,19.90
2019-03-13T04:02:19.692Z,18.57
2019-03-13T04:04:53.000Z,18.60
2019-03-13T04:07:26.656Z,18.57
2019-03-13T04:10:01.244Z,18.77
2019-03-13T04:12:34.521Z,19.20
2019-03-13T04:15:10.712Z,20.33
2019-03-13T04:17:44.212Z,19.37
2019-03-13T04:20:21.034Z,19.50
2019-03-13T04:22:54.283Z,19.73
2019-03-13T04:25:32.286Z,19.60
2019-03-13T04:30:48.419Z,16.87
2019-03-13T04:33:21.794Z,18.10
2019-03-13T04:35:55.082Z,17.73
2019-03-13T04:38:28.335Z,16.73
2019-03-13T04:41:01.620Z,16.00
2019-03-13T04:43:34.886Z,16.60
2019-03-13T04:46:08.167Z,16.80
2019-03-13T04:48:41.437Z,15.27
2019-03-13T04:51:14.761Z,15.87
2019-03-13T04:53:48.074Z,15.83
2019-03-13T04:56:21.387Z,17.23
2019-03-13T04:58:54.677Z,15.33
2019-03-13T05:01:27.964Z,15.33
2019-03-13T05:04:01.221Z,16.87
2019-03-13T05:06:34.502Z,15.00
2019-03-13T05:09:08.020Z,15.13
2019-03-13T05:11:41.446Z,14.93
2019-03-13T05:14:14.679Z,14.30
2019-03-13T05:16:48.016Z,15.03
2019-03-13T05:19:21.251Z,15.70
2019-03-13T05:21:54.571Z,14.20
2019-03-13T05:24:28.681Z,15.53
2019-03-13T05:27:01.961Z,14.60
2019-03-13T05:29:36.244Z,15.47
2019-03-13T05:32:09.464Z,14.07
2019-03-13T05:34:43.083Z,14.37
2019-03-13T05:37:18.758Z,13.50
2019-03-13T05:39:52.112Z,14.17
2019-03-13T05:42:25.373Z,13.30
2019-03-13T05:44:58.650Z,11.50
2019-03-13T05:47:31.929Z,12.37
2019-03-13T05:50:07.691Z,12.73
2019-03-13T05:52:41.090Z,13.27
2019-03-13T05:55:15.681Z,13.03
2019-03-13T05:57:55.931Z,12.83
2019-03-13T06:03:24.760Z,12.27
2019-03-13T06:05:58.036Z,11.10
2019-03-13T06:08:31.264Z,12.20
2019-03-13T06:11:04.590Z,10.73
2019-03-13T06:13:40.982Z,12.33
2019-03-13T06:16:14.279Z,11.23
2019-03-13T06:18:47.626Z,10.80
2019-03-13T06:21:20.861Z,11.20
2019-03-13T06:23:54.306Z,12.40
2019-03-13T06:29:52.636Z,9.67
2019-03-13T06:32:25.911Z,10.20
2019-03-13T06:34:59.253Z,9.67
2019-03-13T06:37:32.494Z,9.60
2019-03-13T06:40:17.463Z,9.77
2019-03-13T06:42:50.753Z,8.67
2019-03-13T06:45:24.140Z,9.60
2019-03-13T06:47:57.474Z,8.63
2019-03-13T06:50:30.725Z,9.93
2019-03-13T06:53:03.981Z,10.27
2019-03-13T06:55:37.322Z,9.20
2019-03-13T06:58:10.660Z,10.60
2019-03-13T07:01:03.633Z,10.63
2019-03-13T07:03:41.121Z,10.00
2019-03-13T07:06:33.700Z,9.77
2019-03-13T07:09:09.352Z,9.87
2019-03-13T07:11:47.705Z,10.13
2019-03-13T07:14:28.322Z,9.57
2019-03-13T07:17:08.931Z,9.17
2019-03-13T07:20:01.508Z,9.77
2019-03-13T07:22:36.389Z,10.07
2019-03-13T07:25:27.518Z,9.23
2019-03-13T07:28:12.393Z,9.13
2019-03-13T07:31:02.263Z,8.87
2019-03-13T07:33:42.717Z,8.13
2019-03-13T07:36:33.715Z,8.67
2019-03-13T07:39:09.589Z,8.77
2019-03-13T07:42:02.599Z,8.80
2019-03-13T07:44:46.391Z,8.73
2019-03-13T07:47:35.298Z,8.77
2019-03-13T07:50:21.042Z,8.17
2019-03-13T07:52:56.952Z,8.17
2019-03-13T07:55:48.894Z,8.57
2019-03-13T07:58:26.722Z,8.23
2019-03-13T08:01:06.726Z,7.93
2019-03-13T08:03:51.777Z,8.23
2019-03-13T08:06:45.474Z,7.73
2019-03-13T08:09:20.647Z,7.30
2019-03-13T08:12:11.252Z,8.43
2019-03-13T08:14:54.014Z,8.33
2019-03-13T08:17:31.863Z,7.50
2019-03-13T08:20:32.123Z,8.90
2019-03-13T08:23:04.503Z,7.60
2019-03-13T08:25:43.202Z,6.43
2019-03-13T08:28:18.165Z,6.53
2019-03-13T08:30:53.944Z,13.90
2019-03-13T08:33:40.515Z,5.97
2019-03-13T08:36:24.230Z,7.50
2019-03-13T08:39:14.737Z,7.10
2019-03-13T08:41:47.807Z,7.67
2019-03-13T08:44:22.666Z,7.87
2019-03-13T08:47:09.353Z,7.50
2019-03-13T08:49:47.193Z,7.23
2019-03-13T08:52:31.102Z,7.50
2019-03-13T08:55:06.234Z,7.23
2019-03-13T08:57:57.312Z,6.87
2019-03-13T09:00:32.259Z,7.40
2019-03-13T09:03:16.953Z,7.40
2019-03-13T09:06:09.593Z,7.57
2019-03-13T09:08:44.495Z,7.40
2019-03-13T09:11:25.222Z,7.27
2019-03-13T09:13:58.295Z,8.07
2019-03-13T09:16:33.119Z,7.13
2019-03-13T09:19:11.968Z,7.20
2019-03-13T09:21:52.665Z,6.83
2019-03-13T09:24:36.039Z,7.90
2019-03-13T09:27:22.924Z,7.00
2019-03-13T09:30:13.460Z,7.77
2019-03-13T09:32:48.314Z,6.40
2019-03-13T09:35:21.362Z,7.60
2019-03-13T09:38:03.394Z,7.37
2019-03-13T09:40:36.416Z,7.73
2019-03-13T09:43:11.280Z,8.40
2019-03-13T09:45:55.861Z,9.30
2019-03-13T09:48:31.453Z,8.03
2019-03-13T09:51:06.255Z,8.47
2019-03-13T09:53:49.679Z,6.90
2019-03-13T09:56:30.402Z,4.07
2019-03-13T09:59:07.717Z,6.80
2019-03-13T10:01:42.722Z,9.07
2019-03-13T10:04:26.496Z,8.00
2019-03-13T10:07:12.015Z,6.67
2019-03-13T10:09:49.486Z,8.37
2019-03-13T10:12:29.903Z,7.77
2019-03-13T10:15:06.916Z,8.40
2019-03-13T10:17:42.494Z,9.57
2019-03-13T10:20:26.193Z,8.23
2019-03-13T10:22:59.123Z,7.93
2019-03-13T10:25:50.150Z,7.63
2019-03-13T10:28:33.694Z,5.20
2019-03-13T10:31:09.503Z,9.50
2019-03-13T10:33:45.773Z,9.27
2019-03-13T10:36:23.201Z,5.73
2019-03-13T10:38:58.019Z,9.33
2019-03-13T10:41:42.738Z,9.20
2019-03-13T10:44:33.585Z,9.97
2019-03-13T10:47:26.522Z,7.07
2019-03-13T10:50:07.066Z,9.67
2019-03-13T10:52:42.013Z,10.27
2019-03-13T10:55:16.882Z,10.00
2019-03-13T10:57:55.589Z,10.60
2019-03-13T11:00:42.123Z,10.97
2019-03-13T11:03:33.052Z,10.37
2019-03-13T11:06:54.409Z,9.10
2019-03-13T11:09:01.824Z,6.73
2019-03-13T11:11:47.035Z,9.83
2019-03-13T11:14:24.390Z,9.47
2019-03-13T11:16:59.162Z,9.90
2019-03-13T11:19:42.444Z,8.87
2019-03-13T11:22:24.202Z,6.03
2019-03-13T11:24:59.430Z,8.90
2019-03-13T11:27:34.284Z,9.77
2019-03-13T11:30:13.501Z,9.07
2019-03-13T11:32:51.407Z,10.40
2019-03-13T11:35:26.292Z,9.33
2019-03-13T11:38:01.194Z,7.57
2019-03-13T11:40:42.001Z,8.97
2019-03-13T11:43:26.821Z,9.20
2019-03-13T11:46:17.941Z,9.40
2019-03-13T11:49:07.856Z,9.20
2019-03-13T11:51:43.908Z,8.90
2019-03-13T11:54:16.862Z,6.80
2019-03-13T11:56:52.844Z,5.63
2019-03-13T11:59:27.704Z,16.47
2019-03-13T12:02:20.453Z,8.70
2019-03-13T12:04:56.429Z,8.83
2019-03-13T12:07:40.265Z,8.17
2019-03-13T12:10:15.788Z,10.10
2019-03-13T12:13:06.642Z,11.20
2019-03-13T12:15:41.500Z,9.10
2019-03-13T12:18:16.520Z,9.63
2019-03-13T12:20:59.342Z,8.93
2019-03-13T12:23:36.776Z,11.53
2019-03-13T12:26:29.644Z,9.80
2019-03-13T12:29:04.544Z,11.80
2019-03-13T12:31:57.258Z,11.23
2019-03-13T12:34:34.765Z,10.87
2019-03-13T12:37:07.706Z,11.47
2019-03-13T12:39:51.475Z,9.73
2019-03-13T12:42:42.132Z,10.37
2019-03-13T12:45:18.186Z,9.87
2019-03-13T12:47:53.151Z,9.93
2019-03-13T12:50:30.523Z,11.50
2019-03-13T12:53:15.174Z,7.27
2019-03-13T12:56:06.495Z,11.37
2019-03-13T12:58:41.304Z,8.13
2019-03-13T13:01:33.332Z,9.77
2019-03-13T13:04:09.536Z,11.27
2019-03-13T13:07:00.529Z,10.83
2019-03-13T13:09:35.369Z,9.73
2019-03-13T13:12:14.420Z,9.07
2019-03-13T13:14:52.678Z,6.80
2019-03-13T13:17:27.662Z,12.20
2019-03-13T13:20:00.934Z,11.13
2019-03-13T13:22:36.563Z,9.93
2019-03-13T13:25:11.634Z,11.97
2019-03-13T13:27:45.023Z,10.23
2019-03-13T13:30:18.906Z,9.50
2019-03-13T13:32:52.275Z,8.90
2019-03-13T13:35:25.503Z,10.93
2019-03-13T13:38:00.123Z,11.03
2019-03-13T13:40:33.404Z,8.38
2019-03-13T13:43:13.125Z,9.93
2019-03-13T13:45:48.807Z,9.85
2019-03-13T13:48:22.033Z,10.00
2019-03-13T13:57:41.366Z,9.25
2019-03-13T14:00:14.895Z,10.77
2019-03-13T14:02:48.363Z,10.30
2019-03-13T14:05:21.778Z,7.13
2019-03-13T14:07:55.084Z,9.80
2019-03-13T14:10:28.363Z,9.85
2019-03-13T14:13:02.961Z,8.55
2019-03-13T14:15:36.254Z,8.68
2019-03-13T14:18:09.612Z,9.40
2019-03-13T14:20:42.894Z,10.28
2019-03-13T14:23:17.134Z,9.83
2019-03-13T14:25:50.500Z,8.97
2019-03-13T14:28:26.824Z,10.48
2019-03-13T14:31:00.162Z,9.63
2019-03-13T14:33:33.445Z,5.12
2019-03-13T14:58:53.647Z,9.88
2019-03-13T15:01:27.109Z,10.05
2019-03-13T15:04:00.477Z,10.82
2019-03-13T15:06:38.761Z,7.70
2019-03-13T15:09:15.551Z,10.97
2019-03-13T15:11:48.868Z,8.60
2019-03-13T15:14:23.518Z,11.65
2019-03-13T15:20:35.353Z,12.47
2019-03-13T15:23:08.645Z,12.70
2019-03-13T15:25:42.032Z,14.80
2019-03-13T15:28:17.448Z,34.78
2019-03-13T15:30:50.323Z,9.15
2019-03-13T15:37:02.585Z,13.83
2019-03-13T15:39:37.150Z,12.87
2019-03-13T15:42:11.943Z,14.38
2019-03-13T15:44:45.200Z,13.28
2019-03-13T15:47:18.465Z,14.90
2019-03-13T15:49:52.451Z,14.80
2019-03-13T15:52:25.806Z,17.57
2019-03-13T15:54:59.198Z,31.40
2019-03-13T15:57:48.787Z,14.97
2019-03-13T16:00:27.218Z,19.10
2019-03-13T16:03:00.525Z,18.27
2019-03-13T16:05:33.792Z,18.53
2019-03-13T16:08:07.181Z,18.20
2019-03-13T16:10:40.413Z,19.90
2019-03-13T16:13:13.723Z,24.63
2019-03-13T16:15:47.163Z,33.13
2019-03-13T16:18:20.664Z,37.70
2019-03-13T16:20:53.939Z,41.00
2019-03-13T16:23:28.565Z,49.80
2019-03-13T16:26:01.994Z,64.27
2019-03-13T16:28:36.273Z,72.07
2019-03-13T16:31:11.025Z,27.07
2019-03-13T16:33:44.316Z,26.00
2019-03-13T16:36:17.594Z,22.43
2019-03-13T16:38:50.873Z,18.63
2019-03-13T16:41:24.114Z,22.30
2019-03-13T16:43:57.440Z,17.50
2019-03-13T16:46:30.875Z,19.50
2019-03-13T16:49:11.084Z,20.73
2019-03-13T16:51:44.492Z,19.40
2019-03-13T16:54:17.798Z,17.40
2019-03-13T16:56:51.285Z,17.43
2019-03-13T17:00:00.112Z,17.43
2019-03-13T17:02:24.082Z,17.97
2019-03-13T17:04:57.483Z,18.70
2019-03-13T17:07:30.863Z,20.60
2019-03-13T17:10:05.709Z,18.97
2019-03-13T17:12:39.015Z,20.80
2019-03-13T17:15:16.603Z,21.13
2019-03-13T17:17:50.497Z,21.40
2019-03-13T17:20:42.442Z,19.60
2019-03-13T17:23:15.734Z,20.50
2019-03-13T17:25:49.022Z,21.60
2019-03-13T17:28:22.302Z,21.23
2019-03-13T17:30:55.721Z,21.80
2019-03-13T17:33:29.996Z,22.60
2019-03-13T17:36:04.176Z,18.90
2019-03-13T17:38:37.453Z,18.33
2019-03-13T17:41:10.807Z,21.07
2019-03-13T17:43:44.110Z,19.50
2019-03-13T17:46:17.489Z,21.13
2019-03-13T17:49:06.604Z,20.90
2019-03-13T17:51:39.845Z,26.30
2019-03-13T17:54:13.113Z,28.93
2019-03-13T17:57:04.359Z,38.73
2019-03-13T17:59:37.612Z,29.90
2019-03-13T18:02:10.864Z,30.60
2019-03-13T18:04:44.150Z,37.73
2019-03-13T18:07:18.667Z,33.33
2019-03-13T18:09:51.915Z,33.37
2019-03-13T18:12:25.157Z,31.93
2019-03-13T18:14:58.496Z,26.27
2019-03-13T18:17:31.726Z,26.70
2019-03-13T18:20:13.448Z,19.93
2019-03-13T18:22:46.707Z,21.07
2019-03-13T18:25:19.979Z,20.70
2019-03-13T18:27:54.447Z,22.37
2019-03-13T18:30:30.492Z,21.57
2019-03-13T18:33:24.133Z,22.80
2019-03-13T18:39:29.559Z,23.07
2019-03-13T18:42:02.837Z,22.67
2019-03-13T18:44:37.991Z,24.93
2019-03-13T18:47:11.366Z,25.63
2019-03-13T18:53:11.388Z,95.70
2019-03-13T18:55:44.844Z,100.43
2019-03-13T18:58:18.091Z,48.77
2019-03-13T19:00:51.468Z,84.77
2019-03-13T19:03:24.907Z,45.13
2019-03-13T19:05:59.523Z,40.17
2019-03-13T19:08:32.967Z,63.87
2019-03-13T19:11:06.833Z,35.17
2019-03-13T19:13:40.102Z,69.83
2019-03-13T19:16:13.405Z,37.47
2019-03-13T19:18:46.744Z,201.37
2019-03-13T19:21:20.087Z,70.73
2019-03-13T19:23:53.522Z,44.60
2019-03-13T19:26:26.940Z,127.10
2019-03-13T19:29:01.809Z,73.90
2019-03-13T19:31:35.199Z,68.63
2019-03-13T19:34:08.563Z,44.60
2019-03-13T19:36:42.032Z,25.83
2019-03-13T19:39:15.292Z,69.50
2019-03-13T19:41:48.611Z,27.30
2019-03-13T19:44:21.974Z,30.73
2019-03-13T19:46:55.235Z,27.57
2019-03-13T19:49:28.612Z,36.13
2019-03-13T19:52:02.163Z,54.70
2019-03-13T19:54:35.509Z,38.43
2019-03-13T19:57:08.814Z,56.67
2019-03-13T19:59:42.253Z,52.93
2019-03-13T20:02:15.623Z,43.97
2019-03-13T20:04:48.984Z,39.83
2019-03-13T20:07:22.296Z,76.23
2019-03-13T20:09:55.596Z,57.27
2019-03-13T20:12:28.863Z,113.43
2019-03-13T20:15:02.283Z,41.20
2019-03-13T20:17:35.858Z,57.47
2019-03-13T20:20:19.053Z,45.33
2019-03-13T20:23:16.084Z,38.23
2019-03-13T20:25:49.347Z,40.80
2019-03-13T20:28:22.643Z,40.43
2019-03-13T20:30:56.062Z,38.80
2019-03-13T20:33:29.356Z,50.03
2019-03-13T20:36:02.627Z,36.40
2019-03-13T20:38:35.934Z,54.30
2019-03-13T20:41:09.121Z,37.57
2019-03-13T20:43:45.661Z,56.50
2019-03-13T20:46:18.633Z,40.73
2019-03-13T20:48:52.930Z,52.50
2019-03-13T20:51:26.174Z,47.23
2019-03-13T20:54:06.948Z,44.77
2019-03-13T20:56:40.324Z,46.07
2019-03-13T20:59:14.566Z,44.20
2019-03-13T21:01:47.851Z,28.60
2019-03-13T21:04:21.213Z,37.43
2019-03-13T21:06:54.536Z,40.23
2019-03-13T21:09:27.766Z,34.67
2019-03-13T21:16:14.802Z,35.73
2019-03-13T21:19:06.155Z,34.07
2019-03-13T21:21:40.159Z,44.87
2019-03-13T21:24:13.504Z,33.63
2019-03-13T21:26:49.202Z,37.33
2019-03-13T21:29:21.773Z,37.13
2019-03-13T21:31:55.096Z,36.13
2019-03-13T21:34:28.626Z,34.40
2019-03-13T21:37:01.880Z,35.87
2019-03-13T21:39:35.208Z,34.10
2019-03-13T21:42:34.141Z,34.80
2019-03-13T21:45:21.273Z,35.57
2019-03-13T21:47:44.202Z,39.13
2019-03-13T21:50:19.054Z,37.07
2019-03-13T21:52:52.355Z,34.93
2019-03-13T21:55:27.721Z,33.20
2019-03-13T21:58:03.780Z,31.30
2019-03-13T22:00:37.025Z,33.53
2019-03-13T22:03:10.323Z,34.50
2019-03-13T22:05:43.557Z,30.57
2019-03-13T22:11:55.511Z,31.03
2019-03-13T22:18:07.186Z,30.60
2019-03-13T22:20:40.430Z,31.30
2019-03-13T22:23:13.719Z,37.67
2019-03-13T22:25:47.063Z,36.40
2019-03-13T22:28:30.328Z,32.30
2019-03-13T22:31:03.563Z,33.40
2019-03-13T22:33:36.894Z,37.13
2019-03-13T22:36:10.268Z,38.33
2019-03-13T22:38:43.552Z,33.23
2019-03-13T22:41:16.789Z,47.87
2019-03-13T22:43:50.000Z,37.17
2019-03-13T22:46:23.241Z,35.87
2019-03-13T22:48:58.408Z,37.17
2019-03-13T22:51:31.403Z,35.03
2019-03-13T22:54:04.866Z,34.20
2019-03-13T22:56:38.056Z,31.37
2019-03-13T22:59:11.331Z,34.00
2019-03-13T23:01:44.881Z,29.97
2019-03-13T23:04:19.685Z,32.73
2019-03-13T23:06:55.015Z,31.60
2019-03-13T23:09:28.284Z,26.97
2019-03-13T23:12:01.479Z,28.97
2019-03-13T23:14:34.914Z,29.27
2019-03-13T23:17:08.163Z,30.07
2019-03-13T23:19:46.100Z,30.00
2019-03-13T23:22:19.356Z,27.97
2019-03-13T23:24:52.726Z,26.63
2019-03-13T23:27:25.965Z,30.10
2019-03-13T23:29:59.277Z,29.63
2019-03-13T23:32:32.513Z,29.60
2019-03-13T23:35:06.928Z,29.03
2019-03-13T23:37:40.135Z,30.03
2019-03-13T23:40:13.725Z,29.30
2019-03-13T23:42:46.998Z,31.27
2019-03-13T23:45:21.277Z,29.30
2019-03-13T23:47:54.526Z,29.53
2019-03-13T23:50:29.676Z,27.40
2019-03-13T23:53:02.923Z,26.73
2019-03-13T23:55:36.305Z,28.30
2019-03-13T23:58:11.490Z,28.47
